TRA5820 LIBD-EHAM
Flight info
| Callsign | TRA5820 |
|---|---|
| Flight time | N/A |
| Altitude | 38000 |
| Route | PISIP L612 VIE DCT XOLTA DCT ZDA DCT NIPEL DCT BUMUK DCT SIMBA DCT EXITI DCT GASKA DCT MAPOX DCT NORKU |
| Aircraft | B738/M-SDE2E3FGHIRWXY/LB1 |
Departure
| Time | N/A |
|---|---|
| Airport | Bari Karol Wojtyła International Airport (LIBD) |
Arrival
| Time | 2026-05-07 15:22 |
|---|---|
| Airport | Amsterdam Airport Schiphol (EHAM) |
| Time | Latitude | Longitude | Altitude | Speed | Heading |
|---|---|---|---|---|---|
| 2026-05-07 14:57 | 52.27789 | 6.85260 | 23941 ft | 387 kts | 307° |
| 2026-05-07 14:57 | 52.29472 | 6.81844 | 23457 ft | 385 kts | 307° |
| 2026-05-07 14:57 | 52.31152 | 6.78459 | 22936 ft | 382 kts | 307° |
| 2026-05-07 14:58 | 52.32820 | 6.75099 | 22465 ft | 378 kts | 307° |
| 2026-05-07 14:58 | 52.34236 | 6.71488 | 21702 ft | 378 kts | 293° |
| 2026-05-07 14:58 | 52.35115 | 6.67577 | 21190 ft | 367 kts | 283° |
| 2026-05-07 14:58 | 52.35715 | 6.63518 | 20744 ft | 366 kts | 282° |
| 2026-05-07 14:59 | 52.36301 | 6.59469 | 20313 ft | 366 kts | 283° |
| 2026-05-07 14:59 | 52.36891 | 6.55412 | 19857 ft | 366 kts | 283° |
| 2026-05-07 14:59 | 52.37484 | 6.51351 | 19378 ft | 366 kts | 283° |
| 2026-05-07 14:59 | 52.38078 | 6.47309 | 18940 ft | 364 kts | 283° |
| 2026-05-07 15:00 | 52.38670 | 6.43297 | 18506 ft | 361 kts | 283° |
| 2026-05-07 15:00 | 52.39257 | 6.39320 | 18039 ft | 358 kts | 283° |
| 2026-05-07 15:00 | 52.39839 | 6.35374 | 17572 ft | 355 kts | 283° |
| 2026-05-07 15:00 | 52.40415 | 6.31462 | 17148 ft | 351 kts | 283° |
| 2026-05-07 15:01 | 52.40984 | 6.27592 | 16712 ft | 348 kts | 283° |
| 2026-05-07 15:01 | 52.41546 | 6.23755 | 16279 ft | 345 kts | 283° |
| 2026-05-07 15:01 | 52.42102 | 6.19953 | 15865 ft | 342 kts | 283° |
| 2026-05-07 15:01 | 52.42653 | 6.16172 | 15449 ft | 340 kts | 283° |
| 2026-05-07 15:02 | 52.43200 | 6.12417 | 15041 ft | 337 kts | 283° |
| 2026-05-07 15:02 | 52.43741 | 6.08691 | 14639 ft | 335 kts | 283° |
| 2026-05-07 15:02 | 52.44277 | 6.04984 | 14240 ft | 333 kts | 282° |
| 2026-05-07 15:02 | 52.44810 | 6.01292 | 13823 ft | 331 kts | 283° |
| 2026-05-07 15:03 | 52.45338 | 5.97624 | 13398 ft | 329 kts | 281° |
| 2026-05-07 15:03 | 52.45522 | 5.93921 | 13122 ft | 325 kts | 265° |
| 2026-05-07 15:03 | 52.45226 | 5.90316 | 12876 ft | 323 kts | 261° |
| 2026-05-07 15:03 | 52.44856 | 5.86670 | 12620 ft | 326 kts | 260° |
| 2026-05-07 15:04 | 52.44471 | 5.82985 | 12361 ft | 330 kts | 260° |
| 2026-05-07 15:04 | 52.44086 | 5.79286 | 12103 ft | 328 kts | 260° |
| 2026-05-07 15:04 | 52.43707 | 5.75615 | 11853 ft | 325 kts | 260° |
| 2026-05-07 15:04 | 52.43336 | 5.71984 | 11590 ft | 322 kts | 260° |
| 2026-05-07 15:05 | 52.42970 | 5.68375 | 11337 ft | 320 kts | 260° |
| 2026-05-07 15:05 | 52.42605 | 5.64781 | 11085 ft | 319 kts | 260° |
| 2026-05-07 15:05 | 52.42243 | 5.61203 | 10841 ft | 318 kts | 260° |
| 2026-05-07 15:05 | 52.41882 | 5.57639 | 10586 ft | 315 kts | 260° |
| 2026-05-07 15:06 | 52.41523 | 5.54105 | 10377 ft | 314 kts | 260° |
| 2026-05-07 15:06 | 52.41164 | 5.50579 | 10122 ft | 313 kts | 260° |
| 2026-05-07 15:06 | 52.40807 | 5.47074 | 9856 ft | 309 kts | 260° |
| 2026-05-07 15:06 | 52.40458 | 5.43655 | 9558 ft | 298 kts | 260° |
| 2026-05-07 15:07 | 52.40122 | 5.40380 | 9273 ft | 286 kts | 259° |
| 2026-05-07 15:07 | 52.39799 | 5.37235 | 9005 ft | 276 kts | 259° |
| 2026-05-07 15:07 | 52.39484 | 5.34191 | 8736 ft | 273 kts | 259° |
| 2026-05-07 15:07 | 52.39170 | 5.31149 | 8475 ft | 270 kts | 259° |
| 2026-05-07 15:08 | 52.38857 | 5.28137 | 8218 ft | 267 kts | 259° |
| 2026-05-07 15:08 | 52.38546 | 5.25144 | 7965 ft | 266 kts | 259° |
| 2026-05-07 15:08 | 52.38234 | 5.22153 | 7708 ft | 268 kts | 259° |
| 2026-05-07 15:08 | 52.37910 | 5.19068 | 7485 ft | 282 kts | 259° |
| 2026-05-07 15:09 | 52.37575 | 5.15872 | 7227 ft | 287 kts | 259° |
| 2026-05-07 15:09 | 52.37242 | 5.12692 | 7106 ft | 279 kts | 259° |
| 2026-05-07 15:09 | 52.36920 | 5.09629 | 7068 ft | 267 kts | 259° |
| 2026-05-07 15:09 | 52.36607 | 5.06659 | 7065 ft | 263 kts | 258° |
| 2026-05-07 15:10 | 52.36402 | 5.03699 | 7071 ft | 262 kts | 266° |
| 2026-05-07 15:10 | 52.36334 | 5.00707 | 7079 ft | 264 kts | 267° |
| 2026-05-07 15:10 | 52.36287 | 4.97698 | 7085 ft | 265 kts | 267° |
| 2026-05-07 15:10 | 52.36238 | 4.94671 | 7092 ft | 266 kts | 267° |
| 2026-05-07 15:11 | 52.36193 | 4.91639 | 7084 ft | 267 kts | 267° |
| 2026-05-07 15:11 | 52.36167 | 4.88644 | 7076 ft | 266 kts | 267° |
| 2026-05-07 15:11 | 52.36138 | 4.85618 | 7070 ft | 265 kts | 268° |
| 2026-05-07 15:11 | 52.36114 | 4.82604 | 7075 ft | 264 kts | 267° |
| 2026-05-07 15:12 | 52.36099 | 4.79613 | 7065 ft | 261 kts | 267° |
| 2026-05-07 15:12 | 52.36083 | 4.76684 | 6958 ft | 254 kts | 267° |
| 2026-05-07 15:12 | 52.36062 | 4.73815 | 6755 ft | 251 kts | 268° |
| 2026-05-07 15:12 | 52.36047 | 4.70962 | 6498 ft | 250 kts | 266° |
| 2026-05-07 15:13 | 52.35727 | 4.68193 | 6191 ft | 248 kts | 246° |
| 2026-05-07 15:13 | 52.35019 | 4.65648 | 5956 ft | 245 kts | 243° |
| 2026-05-07 15:13 | 52.34269 | 4.63139 | 5665 ft | 245 kts | 243° |
| 2026-05-07 15:13 | 52.33505 | 4.60643 | 5383 ft | 245 kts | 243° |
| 2026-05-07 15:14 | 52.32744 | 4.58190 | 5117 ft | 245 kts | 243° |
| 2026-05-07 15:14 | 52.31967 | 4.55719 | 4841 ft | 244 kts | 243° |
| 2026-05-07 15:14 | 52.31190 | 4.53283 | 4723 ft | 237 kts | 242° |
| 2026-05-07 15:14 | 52.30431 | 4.50921 | 4548 ft | 233 kts | 242° |
| 2026-05-07 15:15 | 52.29678 | 4.48581 | 4284 ft | 233 kts | 242° |
| 2026-05-07 15:15 | 52.28919 | 4.46226 | 3982 ft | 235 kts | 242° |
| 2026-05-07 15:15 | 52.28159 | 4.43870 | 3750 ft | 233 kts | 242° |
| 2026-05-07 15:15 | 52.27397 | 4.41511 | 3431 ft | 237 kts | 242° |
| 2026-05-07 15:16 | 52.26488 | 4.39288 | 3171 ft | 235 kts | 221° |
| 2026-05-07 15:16 | 52.25067 | 4.38098 | 2941 ft | 231 kts | 188° |
| 2026-05-07 15:16 | 52.23493 | 4.38326 | 2620 ft | 227 kts | 154° |
| 2026-05-07 15:16 | 52.22147 | 4.39617 | 2406 ft | 223 kts | 143° |
| 2026-05-07 15:17 | 52.21016 | 4.41305 | 2136 ft | 221 kts | 121° |
| 2026-05-07 15:17 | 52.20596 | 4.43608 | 2058 ft | 218 kts | 92° |
| 2026-05-07 15:17 | 52.20500 | 4.46092 | 2032 ft | 219 kts | 92° |
| 2026-05-07 15:17 | 52.20401 | 4.48528 | 1993 ft | 210 kts | 93° |
| 2026-05-07 15:18 | 52.20363 | 4.50853 | 2005 ft | 201 kts | 80° |
| 2026-05-07 15:18 | 52.20938 | 4.52863 | 2014 ft | 196 kts | 54° |
| 2026-05-07 15:18 | 52.21673 | 4.54706 | 1989 ft | 190 kts | 59° |
| 2026-05-07 15:18 | 52.22335 | 4.56505 | 1999 ft | 182 kts | 58° |
| 2026-05-07 15:19 | 52.23002 | 4.58264 | 1993 ft | 181 kts | 58° |
| 2026-05-07 15:19 | 52.23663 | 4.60005 | 1936 ft | 182 kts | 58° |
| 2026-05-07 15:19 | 52.24331 | 4.61752 | 1710 ft | 177 kts | 57° |
| 2026-05-07 15:19 | 52.24962 | 4.63403 | 1478 ft | 168 kts | 57° |
| 2026-05-07 15:20 | 52.25558 | 4.64963 | 1266 ft | 155 kts | 55° |
| 2026-05-07 15:20 | 52.26109 | 4.66402 | 1047 ft | 147 kts | 56° |
| 2026-05-07 15:20 | 52.26640 | 4.67795 | 845 ft | 143 kts | 55° |
| 2026-05-07 15:20 | 52.27159 | 4.69147 | 684 ft | 141 kts | 56° |
| 2026-05-07 15:21 | 52.27688 | 4.70524 | 490 ft | 145 kts | 57° |
| 2026-05-07 15:21 | 52.28210 | 4.71919 | 337 ft | 143 kts | 56° |
| 2026-05-07 15:21 | 52.28742 | 4.73267 | 109 ft | 139 kts | 56° |
| 2026-05-07 15:21 | 52.29231 | 4.74551 | -1 ft | 124 kts | 57° |
| 2026-05-07 15:22 | 52.29625 | 4.75584 | -2 ft | 90 kts | 59° |
| 2026-05-07 15:22 | 52.29894 | 4.76279 | -5 ft | 55 kts | 57° |
| 2026-05-07 15:22 | 52.30031 | 4.76539 | -3 ft | 26 kts | 33° |
| 2026-05-07 15:22 | 52.30143 | 4.76637 | -2 ft | 12 kts | 28° |
| 2026-05-07 15:23 | 52.30209 | 4.76694 | -2 ft | 7 kts | 28° |
| 2026-05-07 15:23 | 52.30215 | 4.76700 | -2 ft | 1 kts | 28° |
| 2026-05-07 15:23 | 52.30219 | 4.76703 | -2 ft | 1 kts | 28° |
| 2026-05-07 15:23 | 52.30236 | 4.76717 | -2 ft | 5 kts | 28° |
| 2026-05-07 15:24 | 52.30278 | 4.76742 | -2 ft | 7 kts | 6° |
| 2026-05-07 15:24 | 52.30331 | 4.76723 | -2 ft | 8 kts | 343° |
| 2026-05-07 15:24 | 52.30384 | 4.76758 | -2 ft | 9 kts | 45° |
| 2026-05-07 15:24 | 52.30432 | 4.76877 | -2 ft | 17 kts | 58° |
| 2026-05-07 15:25 | 52.30495 | 4.77041 | -2 ft | 17 kts | 57° |
| 2026-05-07 15:25 | 52.30557 | 4.77199 | -2 ft | 16 kts | 58° |
| 2026-05-07 15:25 | 52.30615 | 4.77352 | -2 ft | 16 kts | 58° |
| 2026-05-07 15:25 | 52.30687 | 4.77452 | -2 ft | 14 kts | 9° |
| 2026-05-07 15:26 | 52.30779 | 4.77461 | -2 ft | 13 kts | 3° |
| 2026-05-07 15:26 | 52.30838 | 4.77390 | -2 ft | 12 kts | 276° |
| 2026-05-07 15:26 | 52.30842 | 4.77250 | -2 ft | 12 kts | 273° |
| 2026-05-07 15:26 | 52.30867 | 4.77175 | -2 ft | 6 kts | 349° |
| 2026-05-07 15:27 | 52.30888 | 4.77174 | -2 ft | 1 kts | 2° |
| 2026-05-07 15:27 | 52.30892 | 4.77175 | -2 ft | 1 kts | 2° |
| 2026-05-07 15:27 | 52.30898 | 4.77175 | -2 ft | 0 kts | 2° |
| 2026-05-07 15:28 | 52.30899 | 4.77175 | -2 ft | 1 kts | 3° |
| 2026-05-07 15:28 | 52.30901 | 4.77175 | -2 ft | 0 kts | 3° |